Meteorological Aerodrome Report (METAR)

METAR

METAR for:NVSC (Vanua Lava/Sola Airport)
Text:NVSC 161500Z 12005KT 9999 FEW020 25/21 Q1011 RMK NIL
Temperature: 25.0°C ( 77°F)
Dewpoint: 21.0°C ( 70°F) [RH = 79%]
Pressure (altimeter):29.85 inches Hg (1011.0 mb)
Winds:from the ESE (120 degrees) at 6 MPH (5 knots; 2.6 m/s)
Visibility:6 or more sm (10+ km)
Ceiling:at least 12,000 feet AGL
Clouds: few clouds at 2000 feet AGL

METAR

METAR for:NVSG (Ambae/Longana Airport)
Text:NVSG 161500Z AUTO 00003KT //// // NCD 23/21 Q1014 RMK NIL
Temperature: 23.0°C ( 73°F)
Dewpoint: 21.0°C ( 70°F) [RH = 89%]
Pressure (altimeter):29.94 inches Hg (1014.0 mb)
Winds:variable direction winds at 3 MPH (3 knots; 1.5 m/s)
Ceiling:at least 12,000 feet AGL
Clouds:sky clear below 12,000 feet AGL

METAR

METAR for:NVSS (Santo/Pekoa International Airport)
Text:NVSS 161500Z AUTO 13006KT //// // NCD 23/21 Q1012 RMK NIL
Temperature: 23.0°C ( 73°F)
Dewpoint: 21.0°C ( 70°F) [RH = 89%]
Pressure (altimeter):29.88 inches Hg (1012.0 mb)
Winds:from the SE (130 degrees) at 7 MPH (6 knots; 3.1 m/s)
Ceiling:at least 12,000 feet AGL
Clouds:sky clear below 12,000 feet AGL

METAR

METAR for:NVSL (Malekula/Lamap Airport)
Text:NVSL 161500Z AUTO 09015KT //// // NCD 17/17 Q1012 RMK NIL
Temperature: 17.0°C ( 63°F)
Dewpoint: 17.0°C ( 63°F) [RH = 100%]
Pressure (altimeter):29.88 inches Hg (1012.0 mb)
Winds:from the E (90 degrees) at 17 MPH (15 knots; 7.7 m/s)
Ceiling:at least 12,000 feet AGL
Clouds:sky clear below 12,000 feet AGL

METAR

METAR for:NVSP (Malekula/Norsup Airport) (Norsup Arpt, --, NV)
Text:NVSP (Malekula/Norsup Airport) 161400Z METAR

METAR

METAR for:NVVV (Efate/Bauerfield International Airport)
Text:NVVV 161700Z 09004KT 9999 SCT020 BKN130 17/16 Q1013 RMK NIL
Temperature: 17.0°C ( 63°F)
Dewpoint: 16.0°C ( 61°F) [RH = 94%]
Pressure (altimeter):29.91 inches Hg (1013.0 mb)
Winds:from the E (90 degrees) at 5 MPH (4 knots; 2.1 m/s)
Visibility:6 or more sm (10+ km)
Ceiling:13000 feet AGL
Clouds: scattered clouds at 2000 feet AGL, broken clouds at 13000 feet AGL

METAR

METAR for:NVVW (Tanna/WhiteGrass International Airport)
Text:NVVW 161500Z AUTO 08004KT //// // NCD 17/13 Q1014 RMK NIL
Temperature: 17.0°C ( 63°F)
Dewpoint: 13.0°C ( 55°F) [RH = 77%]
Pressure (altimeter):29.94 inches Hg (1014.0 mb)
Winds:from the E (80 degrees) at 5 MPH (4 knots; 2.1 m/s)
Ceiling:at least 12,000 feet AGL
Clouds:sky clear below 12,000 feet AGL

METAR

METAR for:NVVA (Aneityum/Anelcahuat Airport)
Text:NVVA 161500Z AUTO 01003KT //// // NCD 14/13 Q1015 RMK NIL
Temperature: 14.0°C ( 57°F)
Dewpoint: 13.0°C ( 55°F) [RH = 94%]
Pressure (altimeter):29.97 inches Hg (1015.0 mb)
Winds:from the N (10 degrees) at 3 MPH (3 knots; 1.5 m/s)
Ceiling:at least 12,000 feet AGL
Clouds:sky clear below 12,000 feet AGL

METAR

ADDS METAR Data INFO
IDs: Format: Raw Decoded Include TAF

Data at: 1805 UTC 16 Aug 2018

NVSC 161500Z 12005KT 9999 FEW020 25/21 Q1011 RMK NIL
NVSG 161500Z AUTO 00003KT //// // NCD 23/21 Q1014 RMK NIL
NVSS 161500Z AUTO 13006KT //// // NCD 23/21 Q1012 RMK NIL
NVSL 161500Z AUTO 09015KT //// // NCD 17/17 Q1012 RMK NIL
NVSP 161400Z METAR
NVVV 161700Z 09004KT 9999 SCT020 BKN130 17/16 Q1013 RMK NIL
NVVW 161500Z AUTO 08004KT //// // NCD 17/13 Q1014 RMK NIL
NVVA 161500Z AUTO 01003KT //// // NCD 14/13 Q1015 RMK NIL